N254SB KLEX-MUHA
Flight info
| Callsign | N254SB |
|---|---|
| Flight time | N/A |
| Altitude | 41000 |
| Route | GHATS DCT MCN DCT CTY/N0428F430 DCT MAXIM |
| Aircraft | C25C/M-SDE2E3FGHRWXY/LB1 |
Departure
| Time | N/A |
|---|---|
| Airport | Blue Grass Airport (KLEX) |
Arrival
| Time | 2026-04-28 16:49 |
|---|---|
| Airport | José Martí International Airport (MUHA) |
| Time | Latitude | Longitude | Altitude | Speed | Heading |
|---|---|---|---|---|---|
| 2026-04-28 14:42 | 35.81706 | -84.33822 | 41168 ft | 339 kts | 180° |
| 2026-04-28 14:43 | 35.77080 | -84.32760 | 41165 ft | 338 kts | 180° |
| 2026-04-28 14:43 | 35.72461 | -84.31702 | 41174 ft | 338 kts | 180° |
| 2026-04-28 14:44 | 35.67846 | -84.30644 | 41182 ft | 337 kts | 180° |
| 2026-04-28 14:44 | 35.63241 | -84.29591 | 41182 ft | 336 kts | 180° |
| 2026-04-28 14:45 | 35.58671 | -84.28547 | 41181 ft | 336 kts | 180° |
| 2026-04-28 14:45 | 35.54080 | -84.27499 | 41184 ft | 336 kts | 180° |
| 2026-04-28 14:46 | 35.49491 | -84.26453 | 41182 ft | 335 kts | 180° |
| 2026-04-28 14:46 | 35.44905 | -84.25412 | 41183 ft | 335 kts | 180° |
| 2026-04-28 14:47 | 35.40352 | -84.24373 | 41185 ft | 335 kts | 180° |
| 2026-04-28 14:47 | 35.35766 | -84.23331 | 41188 ft | 335 kts | 179° |
| 2026-04-28 14:48 | 35.31180 | -84.22291 | 41187 ft | 335 kts | 179° |
| 2026-04-28 14:48 | 35.26594 | -84.21252 | 41215 ft | 335 kts | 179° |
| 2026-04-28 14:49 | 35.22028 | -84.20219 | 41223 ft | 339 kts | 179° |
| 2026-04-28 14:49 | 35.17331 | -84.19159 | 41240 ft | 347 kts | 179° |
| 2026-04-28 14:50 | 35.12513 | -84.18072 | 41246 ft | 357 kts | 179° |
| 2026-04-28 14:50 | 35.07567 | -84.16954 | 41253 ft | 365 kts | 178° |
| 2026-04-28 14:51 | 35.02511 | -84.15815 | 41264 ft | 373 kts | 178° |
| 2026-04-28 14:51 | 34.97396 | -84.14664 | 41278 ft | 380 kts | 178° |
| 2026-04-28 14:52 | 34.92162 | -84.13487 | 41279 ft | 385 kts | 178° |
| 2026-04-28 14:52 | 34.86862 | -84.12298 | 41284 ft | 389 kts | 177° |
| 2026-04-28 14:53 | 34.81503 | -84.11097 | 41285 ft | 395 kts | 177° |
| 2026-04-28 14:53 | 34.76055 | -84.09879 | 41285 ft | 405 kts | 176° |
| 2026-04-28 14:54 | 34.70446 | -84.08624 | 41277 ft | 414 kts | 176° |
| 2026-04-28 14:54 | 34.64738 | -84.07349 | 41276 ft | 420 kts | 176° |
| 2026-04-28 14:55 | 34.58938 | -84.06057 | 41274 ft | 427 kts | 176° |
| 2026-04-28 14:55 | 34.53132 | -84.04762 | 41282 ft | 426 kts | 176° |
| 2026-04-28 14:56 | 34.47311 | -84.03469 | 41292 ft | 424 kts | 176° |
| 2026-04-28 14:56 | 34.41516 | -84.02183 | 41296 ft | 423 kts | 176° |
| 2026-04-28 14:57 | 34.35735 | -84.00902 | 41296 ft | 422 kts | 176° |
| 2026-04-28 14:57 | 34.29965 | -83.99624 | 41296 ft | 421 kts | 176° |
| 2026-04-28 14:58 | 34.24245 | -83.98360 | 41298 ft | 420 kts | 176° |
| 2026-04-28 14:58 | 34.18493 | -83.97091 | 41294 ft | 420 kts | 175° |
| 2026-04-28 14:59 | 34.12738 | -83.95822 | 41282 ft | 421 kts | 175° |
| 2026-04-28 14:59 | 34.06961 | -83.94551 | 41282 ft | 423 kts | 175° |
| 2026-04-28 15:00 | 34.01191 | -83.93283 | 41284 ft | 425 kts | 175° |
| 2026-04-28 15:00 | 33.95359 | -83.91992 | 41282 ft | 427 kts | 175° |
| 2026-04-28 15:01 | 33.89503 | -83.90671 | 41281 ft | 429 kts | 175° |
| 2026-04-28 15:01 | 33.83626 | -83.89317 | 41275 ft | 431 kts | 175° |
| 2026-04-28 15:02 | 33.77772 | -83.87941 | 41304 ft | 432 kts | 174° |
| 2026-04-28 15:02 | 33.71862 | -83.86529 | 41313 ft | 433 kts | 174° |
| 2026-04-28 15:03 | 33.65955 | -83.85078 | 41332 ft | 433 kts | 173° |
| 2026-04-28 15:03 | 33.60028 | -83.84060 | 41327 ft | 429 kts | 181° |
| 2026-04-28 15:04 | 33.54090 | -83.83132 | 41284 ft | 434 kts | 173° |
| 2026-04-28 15:04 | 33.48217 | -83.81644 | 41281 ft | 433 kts | 175° |
| 2026-04-28 15:05 | 33.42273 | -83.80468 | 41279 ft | 434 kts | 175° |
| 2026-04-28 15:05 | 33.36328 | -83.79128 | 41276 ft | 435 kts | 175° |
| 2026-04-28 15:06 | 33.30374 | -83.77863 | 41273 ft | 435 kts | 175° |
| 2026-04-28 15:06 | 33.24447 | -83.76576 | 41266 ft | 436 kts | 175° |
| 2026-04-28 15:07 | 33.18470 | -83.75290 | 41266 ft | 437 kts | 175° |
| 2026-04-28 15:07 | 33.12456 | -83.73997 | 41265 ft | 441 kts | 175° |
| 2026-04-28 15:08 | 33.06394 | -83.72692 | 41265 ft | 444 kts | 175° |
| 2026-04-28 15:08 | 33.00307 | -83.71386 | 41277 ft | 446 kts | 175° |
| 2026-04-28 15:09 | 32.94226 | -83.70082 | 41296 ft | 448 kts | 175° |
| 2026-04-28 15:09 | 32.88084 | -83.68767 | 41315 ft | 449 kts | 174° |
| 2026-04-28 15:10 | 32.81924 | -83.67451 | 41333 ft | 450 kts | 174° |
| 2026-04-28 15:10 | 32.75746 | -83.66131 | 41343 ft | 451 kts | 174° |
| 2026-04-28 15:11 | 32.69625 | -83.64825 | 41341 ft | 446 kts | 174° |
| 2026-04-28 15:11 | 32.63529 | -83.63593 | 41331 ft | 443 kts | 175° |
| 2026-04-28 15:12 | 32.57462 | -83.62395 | 41328 ft | 441 kts | 175° |
| 2026-04-28 15:12 | 32.51423 | -83.61181 | 41318 ft | 439 kts | 175° |
| 2026-04-28 15:13 | 32.45449 | -83.59996 | 41320 ft | 438 kts | 175° |
| 2026-04-28 15:13 | 32.39447 | -83.58800 | 41300 ft | 437 kts | 175° |
| 2026-04-28 15:14 | 32.33457 | -83.57611 | 41282 ft | 436 kts | 175° |
| 2026-04-28 15:14 | 32.27475 | -83.56424 | 41261 ft | 436 kts | 175° |
| 2026-04-28 15:15 | 32.21541 | -83.55248 | 41242 ft | 435 kts | 175° |
| 2026-04-28 15:15 | 32.15574 | -83.54068 | 41236 ft | 434 kts | 175° |
| 2026-04-28 15:16 | 32.09620 | -83.52891 | 41234 ft | 434 kts | 175° |
| 2026-04-28 15:16 | 32.03665 | -83.51716 | 41235 ft | 433 kts | 175° |
| 2026-04-28 15:17 | 31.97757 | -83.50552 | 41235 ft | 433 kts | 175° |
| 2026-04-28 15:17 | 31.91813 | -83.49382 | 41243 ft | 433 kts | 175° |
| 2026-04-28 15:18 | 31.85874 | -83.48214 | 41254 ft | 433 kts | 175° |
| 2026-04-28 15:18 | 31.79934 | -83.47049 | 41259 ft | 433 kts | 175° |
| 2026-04-28 15:19 | 31.74036 | -83.45892 | 41263 ft | 433 kts | 175° |
| 2026-04-28 15:19 | 31.68098 | -83.44729 | 41268 ft | 432 kts | 175° |
| 2026-04-28 15:20 | 31.62162 | -83.43569 | 41265 ft | 433 kts | 175° |
| 2026-04-28 15:20 | 31.56220 | -83.42409 | 41250 ft | 433 kts | 175° |
| 2026-04-28 15:21 | 31.50319 | -83.41258 | 41257 ft | 433 kts | 175° |
| 2026-04-28 15:21 | 31.44374 | -83.40099 | 41256 ft | 433 kts | 175° |
| 2026-04-28 15:22 | 31.38428 | -83.38943 | 41256 ft | 433 kts | 175° |
| 2026-04-28 15:22 | 31.32486 | -83.37788 | 41250 ft | 433 kts | 175° |
| 2026-04-28 15:23 | 31.26532 | -83.36633 | 41244 ft | 434 kts | 175° |
| 2026-04-28 15:23 | 31.20619 | -83.35486 | 41236 ft | 434 kts | 175° |
| 2026-04-28 15:24 | 31.14662 | -83.34335 | 41224 ft | 434 kts | 175° |
| 2026-04-28 15:24 | 31.08703 | -83.33183 | 41226 ft | 434 kts | 175° |
| 2026-04-28 15:25 | 31.02740 | -83.32031 | 41228 ft | 434 kts | 175° |
| 2026-04-28 15:25 | 30.96812 | -83.30888 | 41232 ft | 435 kts | 175° |
| 2026-04-28 15:26 | 30.90841 | -83.29739 | 41230 ft | 435 kts | 175° |
| 2026-04-28 15:26 | 30.84866 | -83.28589 | 41251 ft | 435 kts | 175° |
| 2026-04-28 15:27 | 30.78887 | -83.27440 | 41252 ft | 436 kts | 175° |
| 2026-04-28 15:27 | 30.72940 | -83.26299 | 41248 ft | 436 kts | 175° |
| 2026-04-28 15:28 | 30.66948 | -83.25152 | 41247 ft | 437 kts | 175° |
| 2026-04-28 15:28 | 30.60946 | -83.24004 | 41243 ft | 437 kts | 175° |
| 2026-04-28 15:29 | 30.54938 | -83.22855 | 41239 ft | 438 kts | 175° |
| 2026-04-28 15:29 | 30.48926 | -83.21707 | 41236 ft | 438 kts | 175° |
| 2026-04-28 15:30 | 30.42943 | -83.20567 | 41235 ft | 439 kts | 175° |
| 2026-04-28 15:30 | 30.36913 | -83.19418 | 41232 ft | 439 kts | 175° |
| 2026-04-28 15:31 | 30.30879 | -83.18272 | 41235 ft | 440 kts | 175° |
| 2026-04-28 15:31 | 30.24835 | -83.17122 | 41229 ft | 440 kts | 175° |
| 2026-04-28 15:32 | 30.18826 | -83.15983 | 41228 ft | 441 kts | 175° |
| 2026-04-28 15:32 | 30.12769 | -83.14836 | 41226 ft | 441 kts | 175° |
| 2026-04-28 15:33 | 30.06711 | -83.13690 | 41223 ft | 442 kts | 175° |
| 2026-04-28 15:33 | 30.00645 | -83.12543 | 41225 ft | 442 kts | 175° |
| 2026-04-28 15:34 | 29.94570 | -83.11396 | 41218 ft | 442 kts | 175° |
| 2026-04-28 15:34 | 29.88532 | -83.10259 | 41209 ft | 443 kts | 175° |
| 2026-04-28 15:35 | 29.82448 | -83.09113 | 41202 ft | 443 kts | 175° |
| 2026-04-28 15:35 | 29.73312 | -83.07395 | 41193 ft | 444 kts | 175° |
| 2026-04-28 15:36 | 29.67212 | -83.06250 | 41192 ft | 445 kts | 175° |
| 2026-04-28 15:36 | 29.61130 | -83.05110 | 41193 ft | 447 kts | 175° |
| 2026-04-28 15:37 | 29.54967 | -83.04404 | 41199 ft | 446 kts | 180° |
| 2026-04-28 15:37 | 29.49829 | -83.03871 | 41204 ft | 447 kts | 180° |
| 2026-04-28 15:38 | 29.42571 | -83.03160 | 41205 ft | 448 kts | 180° |
| 2026-04-28 15:38 | 29.36348 | -83.02537 | 41211 ft | 450 kts | 180° |
| 2026-04-28 15:39 | 29.30151 | -83.01925 | 41212 ft | 451 kts | 180° |
| 2026-04-28 15:39 | 29.23898 | -83.01305 | 41210 ft | 451 kts | 180° |
| 2026-04-28 15:40 | 29.17637 | -83.00686 | 41205 ft | 452 kts | 180° |
| 2026-04-28 15:40 | 29.11362 | -83.00067 | 41203 ft | 453 kts | 180° |
| 2026-04-28 15:41 | 29.05080 | -82.99448 | 41200 ft | 453 kts | 180° |
| 2026-04-28 15:41 | 28.98828 | -82.98831 | 41193 ft | 454 kts | 180° |
| 2026-04-28 15:42 | 28.92534 | -82.98212 | 41196 ft | 454 kts | 180° |
| 2026-04-28 15:42 | 28.86231 | -82.97593 | 41194 ft | 455 kts | 180° |
| 2026-04-28 15:43 | 28.79919 | -82.96974 | 41192 ft | 455 kts | 180° |
| 2026-04-28 15:43 | 28.73647 | -82.96359 | 41192 ft | 456 kts | 180° |
| 2026-04-28 15:44 | 28.67329 | -82.95740 | 41190 ft | 456 kts | 180° |
| 2026-04-28 15:44 | 28.61004 | -82.95122 | 41188 ft | 456 kts | 180° |
| 2026-04-28 15:45 | 28.54674 | -82.94504 | 41193 ft | 457 kts | 180° |
| 2026-04-28 15:45 | 28.48342 | -82.93885 | 41192 ft | 457 kts | 180° |
| 2026-04-28 15:46 | 28.42045 | -82.93272 | 41188 ft | 457 kts | 180° |
| 2026-04-28 15:46 | 28.35706 | -82.92656 | 41186 ft | 458 kts | 180° |
| 2026-04-28 15:47 | 28.29356 | -82.92039 | 41187 ft | 458 kts | 180° |
| 2026-04-28 15:47 | 28.23009 | -82.91422 | 41187 ft | 458 kts | 180° |
| 2026-04-28 15:48 | 28.16654 | -82.90805 | 41188 ft | 458 kts | 180° |
| 2026-04-28 15:48 | 28.10339 | -82.90195 | 41187 ft | 459 kts | 180° |
| 2026-04-28 15:49 | 28.03977 | -82.89579 | 41190 ft | 459 kts | 180° |
| 2026-04-28 15:49 | 27.97611 | -82.88963 | 41190 ft | 459 kts | 180° |
| 2026-04-28 15:50 | 27.91242 | -82.88348 | 41189 ft | 459 kts | 180° |
| 2026-04-28 15:50 | 27.88099 | -82.88048 | 42041 ft | 459 kts | 174° |
| 2026-04-28 15:50 | 27.84926 | -82.87743 | 41933 ft | 457 kts | 175° |
| 2026-04-28 15:51 | 27.81802 | -82.87441 | 41810 ft | 443 kts | 175° |
| 2026-04-28 15:51 | 27.78778 | -82.87142 | 41679 ft | 432 kts | 175° |
| 2026-04-28 15:51 | 27.75791 | -82.86856 | 41551 ft | 430 kts | 175° |
| 2026-04-28 15:51 | 27.72822 | -82.86577 | 41414 ft | 427 kts | 175° |
| 2026-04-28 15:52 | 27.69869 | -82.86295 | 41284 ft | 425 kts | 175° |
| 2026-04-28 15:52 | 27.66935 | -82.86009 | 41154 ft | 422 kts | 175° |
| 2026-04-28 15:52 | 27.64014 | -82.85727 | 41030 ft | 420 kts | 175° |
| 2026-04-28 15:52 | 27.61112 | -82.85452 | 41001 ft | 416 kts | 175° |
| 2026-04-28 15:53 | 27.55442 | -82.84908 | 40990 ft | 408 kts | 175° |
| 2026-04-28 15:53 | 27.49828 | -82.84369 | 40990 ft | 405 kts | 175° |
| 2026-04-28 15:54 | 27.44180 | -82.83830 | 40992 ft | 410 kts | 175° |
| 2026-04-28 15:54 | 27.38468 | -82.83284 | 40996 ft | 414 kts | 175° |
| 2026-04-28 15:55 | 27.32708 | -82.82713 | 41003 ft | 417 kts | 175° |
| 2026-04-28 15:55 | 27.26945 | -82.82102 | 41007 ft | 420 kts | 174° |
| 2026-04-28 15:56 | 27.21119 | -82.81443 | 41009 ft | 422 kts | 174° |
| 2026-04-28 15:56 | 27.15262 | -82.80740 | 41009 ft | 424 kts | 174° |
| 2026-04-28 15:57 | 27.09389 | -82.79995 | 41011 ft | 425 kts | 174° |
| 2026-04-28 15:57 | 27.03526 | -82.79460 | 41011 ft | 426 kts | 180° |
| 2026-04-28 15:58 | 26.97586 | -82.79526 | 41007 ft | 427 kts | 178° |
| 2026-04-28 15:58 | 26.91669 | -82.78799 | 41010 ft | 428 kts | 173° |
| 2026-04-28 15:59 | 26.86736 | -82.78344 | 41007 ft | 429 kts | 177° |
| 2026-04-28 15:59 | 26.79784 | -82.77712 | 41010 ft | 429 kts | 175° |
| 2026-04-28 16:00 | 26.73868 | -82.77144 | 41010 ft | 430 kts | 175° |
| 2026-04-28 16:00 | 26.67913 | -82.76591 | 41008 ft | 430 kts | 175° |
| 2026-04-28 16:01 | 26.61947 | -82.76023 | 41011 ft | 430 kts | 175° |
| 2026-04-28 16:01 | 26.55983 | -82.75464 | 41010 ft | 430 kts | 175° |
| 2026-04-28 16:02 | 26.50053 | -82.74904 | 41011 ft | 430 kts | 175° |
| 2026-04-28 16:02 | 26.44082 | -82.74345 | 41009 ft | 431 kts | 175° |
| 2026-04-28 16:03 | 26.38110 | -82.73784 | 41009 ft | 431 kts | 175° |
| 2026-04-28 16:03 | 26.32137 | -82.73223 | 41010 ft | 431 kts | 175° |
| 2026-04-28 16:04 | 26.26162 | -82.72663 | 41010 ft | 431 kts | 175° |
| 2026-04-28 16:04 | 26.21195 | -82.72198 | 41009 ft | 431 kts | 175° |
| 2026-04-28 16:05 | 26.14253 | -82.71550 | 41009 ft | 431 kts | 175° |
| 2026-04-28 16:05 | 26.08276 | -82.70991 | 41010 ft | 431 kts | 175° |
| 2026-04-28 16:06 | 26.02301 | -82.70433 | 41009 ft | 431 kts | 175° |
| 2026-04-28 16:06 | 25.96363 | -82.69881 | 41011 ft | 431 kts | 175° |
| 2026-04-28 16:07 | 25.90384 | -82.69324 | 41011 ft | 431 kts | 175° |
| 2026-04-28 16:08 | 25.81418 | -82.68490 | 41009 ft | 431 kts | 175° |
| 2026-04-28 16:08 | 25.75438 | -82.67935 | 41011 ft | 431 kts | 175° |
| 2026-04-28 16:09 | 25.66512 | -82.67107 | 41009 ft | 431 kts | 175° |
| 2026-04-28 16:10 | 25.57548 | -82.66277 | 41010 ft | 431 kts | 175° |
| 2026-04-28 16:10 | 25.48578 | -82.65441 | 41011 ft | 431 kts | 175° |
| 2026-04-28 16:11 | 25.36670 | -82.64217 | 41009 ft | 431 kts | 174° |
| 2026-04-28 16:12 | 25.27715 | -82.63193 | 41008 ft | 431 kts | 174° |
| 2026-04-28 16:13 | 25.18812 | -82.62086 | 41009 ft | 431 kts | 173° |
| 2026-04-28 16:14 | 25.06898 | -82.60469 | 41011 ft | 431 kts | 173° |
| 2026-04-28 16:15 | 24.94965 | -82.59111 | 41010 ft | 431 kts | 178° |
| 2026-04-28 16:15 | 24.89011 | -82.59100 | 41008 ft | 431 kts | 183° |
| 2026-04-28 16:16 | 24.80036 | -82.59361 | 41009 ft | 431 kts | 175° |
| 2026-04-28 16:17 | 24.72104 | -82.58341 | 41010 ft | 431 kts | 176° |
| 2026-04-28 16:17 | 24.65155 | -82.57825 | 41009 ft | 431 kts | 175° |
| 2026-04-28 16:18 | 24.59179 | -82.57227 | 41008 ft | 431 kts | 175° |
| 2026-04-28 16:18 | 24.54207 | -82.56801 | 41010 ft | 431 kts | 175° |
| 2026-04-28 16:19 | 24.48228 | -82.56246 | 41008 ft | 431 kts | 175° |
| 2026-04-28 16:19 | 24.44249 | -82.55885 | 40728 ft | 434 kts | 175° |
| 2026-04-28 16:19 | 24.41264 | -82.55619 | 40433 ft | 427 kts | 175° |
| 2026-04-28 16:20 | 24.38334 | -82.55351 | 40116 ft | 420 kts | 175° |
| 2026-04-28 16:20 | 24.35428 | -82.55086 | 39657 ft | 417 kts | 175° |
| 2026-04-28 16:20 | 24.32543 | -82.54824 | 39215 ft | 415 kts | 175° |
| 2026-04-28 16:20 | 24.30639 | -82.54653 | 38909 ft | 413 kts | 175° |
| 2026-04-28 16:21 | 24.27783 | -82.54394 | 38463 ft | 411 kts | 175° |
| 2026-04-28 16:21 | 24.24941 | -82.54136 | 38016 ft | 409 kts | 175° |
| 2026-04-28 16:21 | 24.22114 | -82.53881 | 37570 ft | 407 kts | 175° |
| 2026-04-28 16:21 | 24.18389 | -82.53543 | 36982 ft | 404 kts | 175° |
| 2026-04-28 16:22 | 24.15594 | -82.53289 | 36532 ft | 402 kts | 175° |
| 2026-04-28 16:22 | 24.13747 | -82.53124 | 36238 ft | 401 kts | 175° |
| 2026-04-28 16:22 | 24.10973 | -82.52872 | 35795 ft | 399 kts | 175° |
| 2026-04-28 16:22 | 24.08207 | -82.52623 | 35347 ft | 398 kts | 175° |
| 2026-04-28 16:23 | 24.05454 | -82.52373 | 34901 ft | 397 kts | 175° |
| 2026-04-28 16:23 | 24.02706 | -82.52126 | 34450 ft | 396 kts | 175° |
| 2026-04-28 16:23 | 23.99989 | -82.51690 | 34006 ft | 395 kts | 167° |
| 2026-04-28 16:23 | 23.96535 | -82.50466 | 33415 ft | 394 kts | 159° |
| 2026-04-28 16:24 | 23.94805 | -82.49754 | 33091 ft | 393 kts | 160° |
| 2026-04-28 16:24 | 23.92233 | -82.48710 | 32547 ft | 395 kts | 160° |
| 2026-04-28 16:24 | 23.89654 | -82.47670 | 32005 ft | 396 kts | 160° |
| 2026-04-28 16:24 | 23.87104 | -82.46628 | 31471 ft | 396 kts | 160° |
| 2026-04-28 16:25 | 23.84449 | -82.45833 | 30921 ft | 396 kts | 171° |
| 2026-04-28 16:25 | 23.81710 | -82.45566 | 30381 ft | 396 kts | 179° |
| 2026-04-28 16:25 | 23.79851 | -82.45635 | 30008 ft | 395 kts | 185° |
| 2026-04-28 16:25 | 23.76274 | -82.46355 | 29285 ft | 395 kts | 196° |
| 2026-04-28 16:26 | 23.73702 | -82.47390 | 28741 ft | 394 kts | 205° |
| 2026-04-28 16:26 | 23.71302 | -82.48828 | 28195 ft | 394 kts | 213° |
| 2026-04-28 16:26 | 23.69011 | -82.50456 | 27653 ft | 393 kts | 213° |
| 2026-04-28 16:26 | 23.66743 | -82.52042 | 27116 ft | 392 kts | 212° |
| 2026-04-28 16:27 | 23.64444 | -82.53635 | 26507 ft | 392 kts | 212° |
| 2026-04-28 16:27 | 23.62139 | -82.55243 | 25864 ft | 394 kts | 213° |
| 2026-04-28 16:27 | 23.57520 | -82.58471 | 24573 ft | 395 kts | 213° |
| 2026-04-28 16:28 | 23.55205 | -82.60079 | 23936 ft | 395 kts | 213° |
| 2026-04-28 16:28 | 23.52891 | -82.61692 | 23291 ft | 394 kts | 212° |
| 2026-04-28 16:28 | 23.50585 | -82.63297 | 22648 ft | 393 kts | 213° |
| 2026-04-28 16:28 | 23.48283 | -82.64901 | 22003 ft | 392 kts | 212° |
| 2026-04-28 16:29 | 23.43735 | -82.68063 | 20723 ft | 389 kts | 212° |
| 2026-04-28 16:29 | 23.39187 | -82.71223 | 19431 ft | 386 kts | 212° |
| 2026-04-28 16:30 | 23.36944 | -82.72784 | 18784 ft | 378 kts | 213° |
| 2026-04-28 16:30 | 23.34759 | -82.74297 | 18135 ft | 365 kts | 212° |
| 2026-04-28 16:30 | 23.32658 | -82.75759 | 17483 ft | 351 kts | 212° |
| 2026-04-28 16:30 | 23.30642 | -82.77154 | 16829 ft | 337 kts | 212° |
| 2026-04-28 16:31 | 23.28704 | -82.78502 | 16173 ft | 325 kts | 212° |
| 2026-04-28 16:31 | 23.26855 | -82.79780 | 15524 ft | 311 kts | 213° |
| 2026-04-28 16:31 | 23.25072 | -82.81019 | 14866 ft | 298 kts | 212° |
| 2026-04-28 16:31 | 23.23357 | -82.82205 | 14207 ft | 288 kts | 213° |
| 2026-04-28 16:32 | 23.21693 | -82.83358 | 13548 ft | 280 kts | 212° |
| 2026-04-28 16:32 | 23.18542 | -82.85538 | 12000 ft | 251 kts | 212° |
| 2026-04-28 16:32 | 23.17074 | -82.86557 | 11217 ft | 247 kts | 212° |
| 2026-04-28 16:33 | 23.15642 | -82.87545 | 10438 ft | 242 kts | 213° |
| 2026-04-28 16:33 | 23.14710 | -82.88193 | 9922 ft | 239 kts | 212° |
| 2026-04-28 16:33 | 23.12875 | -82.89461 | 8886 ft | 234 kts | 213° |
| 2026-04-28 16:33 | 23.11510 | -82.90402 | 8118 ft | 231 kts | 212° |
| 2026-04-28 16:34 | 23.10160 | -82.91324 | 7345 ft | 228 kts | 209° |
| 2026-04-28 16:34 | 23.08639 | -82.91689 | 6565 ft | 227 kts | 176° |
| 2026-04-28 16:34 | 23.07109 | -82.91321 | 5796 ft | 225 kts | 164° |
| 2026-04-28 16:34 | 23.05621 | -82.90815 | 5027 ft | 223 kts | 162° |
| 2026-04-28 16:35 | 23.04147 | -82.90307 | 4260 ft | 222 kts | 163° |
| 2026-04-28 16:35 | 23.02706 | -82.89832 | 3886 ft | 211 kts | 164° |
| 2026-04-28 16:35 | 23.01324 | -82.89388 | 3875 ft | 208 kts | 164° |
| 2026-04-28 16:35 | 22.99945 | -82.88938 | 3865 ft | 206 kts | 164° |
| 2026-04-28 16:36 | 22.98580 | -82.88489 | 3862 ft | 204 kts | 164° |
| 2026-04-28 16:36 | 22.97222 | -82.88050 | 3863 ft | 203 kts | 164° |
| 2026-04-28 16:36 | 22.95866 | -82.87604 | 3870 ft | 204 kts | 163° |
| 2026-04-28 16:36 | 22.94502 | -82.87161 | 3864 ft | 204 kts | 164° |
| 2026-04-28 16:37 | 22.93143 | -82.86717 | 3863 ft | 203 kts | 164° |
| 2026-04-28 16:37 | 22.91794 | -82.86277 | 3866 ft | 202 kts | 164° |
| 2026-04-28 16:37 | 22.90468 | -82.85844 | 3865 ft | 202 kts | 164° |
| 2026-04-28 16:38 | 22.87794 | -82.84973 | 3867 ft | 200 kts | 164° |
| 2026-04-28 16:38 | 22.86460 | -82.84539 | 3866 ft | 200 kts | 164° |
| 2026-04-28 16:38 | 22.85127 | -82.84103 | 3870 ft | 201 kts | 163° |
| 2026-04-28 16:38 | 22.83789 | -82.83666 | 3874 ft | 202 kts | 164° |
| 2026-04-28 16:39 | 22.82470 | -82.83127 | 3868 ft | 206 kts | 146° |
| 2026-04-28 16:39 | 22.81563 | -82.81909 | 3660 ft | 214 kts | 114° |
| 2026-04-28 16:39 | 22.81414 | -82.80314 | 3412 ft | 218 kts | 79° |
| 2026-04-28 16:39 | 22.81816 | -82.78757 | 3180 ft | 217 kts | 73° |
| 2026-04-28 16:40 | 22.82248 | -82.77278 | 2942 ft | 213 kts | 72° |
| 2026-04-28 16:40 | 22.82694 | -82.75744 | 2690 ft | 209 kts | 73° |
| 2026-04-28 16:40 | 22.83112 | -82.74244 | 2442 ft | 207 kts | 74° |
| 2026-04-28 16:40 | 22.83521 | -82.72764 | 2192 ft | 204 kts | 73° |
| 2026-04-28 16:41 | 22.83926 | -82.71299 | 1977 ft | 200 kts | 73° |
| 2026-04-28 16:41 | 22.84319 | -82.69892 | 1908 ft | 190 kts | 74° |
| 2026-04-28 16:41 | 22.84689 | -82.68565 | 1873 ft | 178 kts | 73° |
| 2026-04-28 16:41 | 22.85032 | -82.67317 | 1863 ft | 168 kts | 73° |
| 2026-04-28 16:42 | 22.85359 | -82.66153 | 1862 ft | 160 kts | 74° |
| 2026-04-28 16:42 | 22.85671 | -82.65024 | 1862 ft | 153 kts | 73° |
| 2026-04-28 16:42 | 22.85972 | -82.63936 | 1859 ft | 149 kts | 74° |
| 2026-04-28 16:42 | 22.86273 | -82.62863 | 1859 ft | 148 kts | 73° |
| 2026-04-28 16:43 | 22.86563 | -82.61807 | 1871 ft | 143 kts | 73° |
| 2026-04-28 16:43 | 22.86843 | -82.60797 | 1867 ft | 138 kts | 75° |
| 2026-04-28 16:43 | 22.87120 | -82.59805 | 1861 ft | 137 kts | 73° |
| 2026-04-28 16:43 | 22.87388 | -82.58826 | 1865 ft | 134 kts | 73° |
| 2026-04-28 16:44 | 22.87677 | -82.57867 | 1859 ft | 133 kts | 66° |
| 2026-04-28 16:44 | 22.88204 | -82.57067 | 1864 ft | 132 kts | 53° |
| 2026-04-28 16:44 | 22.88727 | -82.56238 | 1864 ft | 134 kts | 54° |
| 2026-04-28 16:44 | 22.89278 | -82.55420 | 1864 ft | 135 kts | 55° |
| 2026-04-28 16:45 | 22.89832 | -82.54590 | 1866 ft | 135 kts | 54° |
| 2026-04-28 16:45 | 22.90357 | -82.53792 | 1859 ft | 126 kts | 54° |
| 2026-04-28 16:45 | 22.90859 | -82.53044 | 1860 ft | 119 kts | 55° |
| 2026-04-28 16:45 | 22.91333 | -82.52334 | 1859 ft | 115 kts | 53° |
| 2026-04-28 16:46 | 22.91796 | -82.51628 | 1863 ft | 114 kts | 54° |
| 2026-04-28 16:46 | 22.92258 | -82.50940 | 1860 ft | 113 kts | 56° |
| 2026-04-28 16:46 | 22.92713 | -82.50259 | 1863 ft | 113 kts | 53° |
| 2026-04-28 16:46 | 22.93181 | -82.49546 | 1781 ft | 118 kts | 54° |
| 2026-04-28 16:47 | 22.93667 | -82.48821 | 1639 ft | 120 kts | 55° |
| 2026-04-28 16:47 | 22.94160 | -82.48081 | 1476 ft | 122 kts | 54° |
| 2026-04-28 16:47 | 22.94656 | -82.47328 | 1320 ft | 123 kts | 54° |
| 2026-04-28 16:47 | 22.95159 | -82.46573 | 1154 ft | 124 kts | 55° |
| 2026-04-28 16:48 | 22.95666 | -82.45816 | 990 ft | 124 kts | 54° |
| 2026-04-28 16:48 | 22.96151 | -82.45077 | 821 ft | 118 kts | 54° |
| 2026-04-28 16:48 | 22.96624 | -82.44366 | 657 ft | 112 kts | 55° |
| 2026-04-28 16:48 | 22.97064 | -82.43712 | 504 ft | 104 kts | 54° |
| 2026-04-28 16:49 | 22.97470 | -82.43091 | 326 ft | 101 kts | 54° |
| 2026-04-28 16:49 | 22.97898 | -82.42452 | 236 ft | 106 kts | 54° |
| 2026-04-28 16:49 | 22.98300 | -82.41838 | 212 ft | 88 kts | 52° |
| 2026-04-28 16:49 | 22.98542 | -82.41470 | 213 ft | 46 kts | 53° |
| 2026-04-28 16:50 | 22.98653 | -82.41299 | 210 ft | 25 kts | 57° |
| 2026-04-28 16:50 | 22.98747 | -82.41159 | 213 ft | 21 kts | 52° |
| 2026-04-28 16:50 | 22.98864 | -82.41088 | 210 ft | 15 kts | 8° |
| 2026-04-28 16:50 | 22.98962 | -82.41071 | 210 ft | 14 kts | 6° |
| 2026-04-28 16:51 | 22.98976 | -82.41135 | 218 ft | 11 kts | 232° |
| 2026-04-28 16:51 | 22.98929 | -82.41207 | 212 ft | 12 kts | 236° |
| 2026-04-28 16:51 | 22.98878 | -82.41282 | 211 ft | 13 kts | 233° |
| 2026-04-28 16:51 | 22.98830 | -82.41360 | 211 ft | 8 kts | 273° |
| 2026-04-28 16:52 | 22.98874 | -82.41409 | 210 ft | 10 kts | 326° |
| 2026-04-28 16:52 | 22.98902 | -82.41429 | 210 ft | 5 kts | 327° |
| 2026-04-28 16:52 | 22.98938 | -82.41437 | 210 ft | 6 kts | 352° |
| 2026-04-28 16:52 | 22.98982 | -82.41449 | 210 ft | 7 kts | 353° |
| 2026-04-28 16:53 | 22.99016 | -82.41415 | 210 ft | 8 kts | 62° |
| 2026-04-28 16:53 | 22.99019 | -82.41360 | 210 ft | 6 kts | 116° |
| 2026-04-28 16:53 | 22.98997 | -82.41336 | 210 ft | 3 kts | 142° |
| 2026-04-28 16:53 | 22.98980 | -82.41322 | 210 ft | 2 kts | 142° |
| 2026-04-28 16:54 | 22.98973 | -82.41317 | 214 ft | 3 kts | 143° |
| 2026-04-28 17:07 | 22.98970 | -82.41314 | 210 ft | 2 kts | 141° |
| 2026-04-28 17:08 | 22.98968 | -82.41312 | 216 ft | 0 kts | 137° |
| 2026-04-28 17:08 | 22.98977 | -82.41321 | 214 ft | 3 kts | 139° |
| 2026-04-28 17:08 | 22.98977 | -82.41322 | 214 ft | 0 kts | 139° |
| 2026-04-28 17:08 | 22.98975 | -82.41319 | 215 ft | 0 kts | 136° |
| 2026-04-28 17:09 | 22.98972 | -82.41317 | 210 ft | 1 kts | 143° |
| 2026-04-28 17:09 | 22.98969 | -82.41314 | 210 ft | 0 kts | 143° |
| 2026-04-28 17:09 | 22.98966 | -82.41312 | 216 ft | 1 kts | 143° |
| 2026-04-28 17:09 | 22.98963 | -82.41309 | 215 ft | 0 kts | 143° |
| 2026-04-28 17:10 | 22.98966 | -82.41312 | 215 ft | 1 kts | 143° |
| 2026-04-28 17:10 | 22.98969 | -82.41314 | 210 ft | 0 kts | 143° |